sensor_id;sensor_type;location;lat;lon;timestamp;temperature;humidity
37972;DHT22;23794;48.234;8.344;2022-11-20T00:00:51;4.20;99.90
37972;DHT22;23794;48.234;8.344;2022-11-20T00:03:18;4.10;99.90
37972;DHT22;23794;48.234;8.344;2022-11-20T00:05:45;4.00;99.90
37972;DHT22;23794;48.234;8.344;2022-11-20T00:08:12;3.70;99.90
37972;DHT22;23794;48.234;8.344;2022-11-20T00:10:40;3.80;99.90
37972;DHT22;23794;48.234;8.344;2022-11-20T00:13:07;3.70;99.90
37972;DHT22;23794;48.234;8.344;2022-11-20T00:15:34;3.60;99.90
37972;DHT22;23794;48.234;8.344;2022-11-20T00:18:00;3.60;99.90
37972;DHT22;23794;48.234;8.344;2022-11-20T00:20:27;3.70;99.90
37972;DHT22;23794;48.234;8.344;2022-11-20T00:22:54;3.60;99.90
37972;DHT22;23794;48.234;8.344;2022-11-20T00:25:20;3.50;99.90
37972;DHT22;23794;48.234;8.344;2022-11-20T00:27:47;3.50;99.90
37972;DHT22;23794;48.234;8.344;2022-11-20T00:30:14;3.60;99.90
37972;DHT22;23794;48.234;8.344;2022-11-20T00:32:41;3.70;99.90
37972;DHT22;23794;48.234;8.344;2022-11-20T00:35:08;3.70;99.90
37972;DHT22;23794;48.234;8.344;2022-11-20T00:37:34;3.70;99.90
37972;DHT22;23794;48.234;8.344;2022-11-20T00:40:01;3.70;99.90
37972;DHT22;23794;48.234;8.344;2022-11-20T00:42:28;3.50;99.90
37972;DHT22;23794;48.234;8.344;2022-11-20T00:44:54;3.50;99.90
37972;DHT22;23794;48.234;8.344;2022-11-20T00:47:21;3.40;99.90
37972;DHT22;23794;48.234;8.344;2022-11-20T00:49:48;3.40;99.90
37972;DHT22;23794;48.234;8.344;2022-11-20T00:52:15;3.50;99.90
37972;DHT22;23794;48.234;8.344;2022-11-20T00:54:41;3.40;99.90
37972;DHT22;23794;48.234;8.344;2022-11-20T00:57:08;3.40;99.90
37972;DHT22;23794;48.234;8.344;2022-11-20T00:59:35;3.30;99.90
37972;DHT22;23794;48.234;8.344;2022-11-20T01:02:01;3.30;99.90
37972;DHT22;23794;48.234;8.344;2022-11-20T01:04:28;3.40;99.90
37972;DHT22;23794;48.234;8.344;2022-11-20T01:06:55;3.30;99.90
37972;DHT22;23794;48.234;8.344;2022-11-20T01:09:22;3.30;99.90
37972;DHT22;23794;48.234;8.344;2022-11-20T01:11:49;3.20;99.90
37972;DHT22;23794;48.234;8.344;2022-11-20T01:14:18;3.30;99.90
37972;DHT22;23794;48.234;8.344;2022-11-20T01:16:48;3.30;99.90
37972;DHT22;23794;48.234;8.344;2022-11-20T01:19:19;3.30;99.90
37972;DHT22;23794;48.234;8.344;2022-11-20T01:21:49;3.50;99.90
37972;DHT22;23794;48.234;8.344;2022-11-20T01:24:18;3.40;99.90
37972;DHT22;23794;48.234;8.344;2022-11-20T01:26:47;3.50;99.90
37972;DHT22;23794;48.234;8.344;2022-11-20T01:29:17;3.50;99.90
37972;DHT22;23794;48.234;8.344;2022-11-20T01:31:45;3.50;99.90
37972;DHT22;23794;48.234;8.344;2022-11-20T01:34:14;3.50;99.90
37972;DHT22;23794;48.234;8.344;2022-11-20T01:36:42;3.50;99.90
37972;DHT22;23794;48.234;8.344;2022-11-20T01:39:18;3.30;99.90
37972;DHT22;23794;48.234;8.344;2022-11-20T01:41:47;3.40;99.90
37972;DHT22;23794;48.234;8.344;2022-11-20T01:44:53;3.50;99.90
37972;DHT22;23794;48.234;8.344;2022-11-20T01:47:44;3.40;99.90
37972;DHT22;23794;48.234;8.344;2022-11-20T01:50:17;3.40;99.90
37972;DHT22;23794;48.234;8.344;2022-11-20T01:52:50;3.50;99.90
37972;DHT22;23794;48.234;8.344;2022-11-20T01:55:22;3.50;99.90
37972;DHT22;23794;48.234;8.344;2022-11-20T01:57:51;3.40;99.90
37972;DHT22;23794;48.234;8.344;2022-11-20T02:00:19;3.30;99.90
37972;DHT22;23794;48.234;8.344;2022-11-20T02:02:58;3.30;99.90
37972;DHT22;23794;48.234;8.344;2022-11-20T02:05:43;3.20;99.90
37972;DHT22;23794;48.234;8.344;2022-11-20T02:08:12;3.20;99.90
37972;DHT22;23794;48.234;8.344;2022-11-20T02:10:39;3.20;99.90
37972;DHT22;23794;48.234;8.344;2022-11-20T02:13:06;3.30;99.90
37972;DHT22;23794;48.234;8.344;2022-11-20T02:15:51;3.30;99.90
37972;DHT22;23794;48.234;8.344;2022-11-20T02:18:19;3.40;99.90
37972;DHT22;23794;48.234;8.344;2022-11-20T02:20:49;3.50;99.90
37972;DHT22;23794;48.234;8.344;2022-11-20T02:25:53;3.50;99.90
37972;DHT22;23794;48.234;8.344;2022-11-20T02:28:22;3.50;99.90
37972;DHT22;23794;48.234;8.344;2022-11-20T02:30:49;3.50;99.90
37972;DHT22;23794;48.234;8.344;2022-11-20T02:33:15;3.50;99.90
37972;DHT22;23794;48.234;8.344;2022-11-20T02:35:47;3.50;99.90
37972;DHT22;23794;48.234;8.344;2022-11-20T02:38:14;3.50;99.90
37972;DHT22;23794;48.234;8.344;2022-11-20T02:43:49;3.50;99.90
37972;DHT22;23794;48.234;8.344;2022-11-20T02:46:16;3.50;99.90
37972;DHT22;23794;48.234;8.344;2022-11-20T02:48:43;3.30;99.90
37972;DHT22;23794;48.234;8.344;2022-11-20T02:51:09;3.20;99.90
37972;DHT22;23794;48.234;8.344;2022-11-20T02:53:36;3.30;99.90
37972;DHT22;23794;48.234;8.344;2022-11-20T02:56:03;3.20;99.90
37972;DHT22;23794;48.234;8.344;2022-11-20T02:58:30;3.30;99.90
37972;DHT22;23794;48.234;8.344;2022-11-20T03:00:56;3.30;99.90
37972;DHT22;23794;48.234;8.344;2022-11-20T03:03:23;3.30;99.90
37972;DHT22;23794;48.234;8.344;2022-11-20T03:05:50;3.20;99.90
37972;DHT22;23794;48.234;8.344;2022-11-20T03:08:17;3.20;99.90
37972;DHT22;23794;48.234;8.344;2022-11-20T03:10:44;3.20;99.90
37972;DHT22;23794;48.234;8.344;2022-11-20T03:13:10;3.20;99.90
37972;DHT22;23794;48.234;8.344;2022-11-20T03:15:37;3.20;99.90
37972;DHT22;23794;48.234;8.344;2022-11-20T03:18:04;3.10;99.90
37972;DHT22;23794;48.234;8.344;2022-11-20T03:20:32;3.10;99.90
37972;DHT22;23794;48.234;8.344;2022-11-20T03:23:00;3.00;99.90
37972;DHT22;23794;48.234;8.344;2022-11-20T03:25:27;3.00;99.90
37972;DHT22;23794;48.234;8.344;2022-11-20T03:27:54;2.90;99.90
37972;DHT22;23794;48.234;8.344;2022-11-20T03:30:21;2.90;99.90
37972;DHT22;23794;48.234;8.344;2022-11-20T03:32:56;3.00;99.90
37972;DHT22;23794;48.234;8.344;2022-11-20T03:35:22;2.90;99.90
37972;DHT22;23794;48.234;8.344;2022-11-20T03:37:49;2.70;99.90
37972;DHT22;23794;48.234;8.344;2022-11-20T03:40:16;2.70;99.90
37972;DHT22;23794;48.234;8.344;2022-11-20T03:42:43;2.60;99.90
37972;DHT22;23794;48.234;8.344;2022-11-20T03:45:17;2.60;99.90
37972;DHT22;23794;48.234;8.344;2022-11-20T03:47:45;2.60;99.90
37972;DHT22;23794;48.234;8.344;2022-11-20T03:50:12;2.70;99.90
37972;DHT22;23794;48.234;8.344;2022-11-20T03:52:40;2.70;99.90
37972;DHT22;23794;48.234;8.344;2022-11-20T03:55:08;2.70;99.90
37972;DHT22;23794;48.234;8.344;2022-11-20T03:57:35;2.70;99.90
37972;DHT22;23794;48.234;8.344;2022-11-20T04:00:03;2.70;99.90
37972;DHT22;23794;48.234;8.344;2022-11-20T04:02:30;2.70;99.90
37972;DHT22;23794;48.234;8.344;2022-11-20T04:04:57;2.60;99.90
37972;DHT22;23794;48.234;8.344;2022-11-20T04:07:24;2.70;99.90
37972;DHT22;23794;48.234;8.344;2022-11-20T04:09:50;2.80;99.90
37972;DHT22;23794;48.234;8.344;2022-11-20T04:12:17;2.70;99.90
37972;DHT22;23794;48.234;8.344;2022-11-20T04:14:44;2.70;99.90
37972;DHT22;23794;48.234;8.344;2022-11-20T04:17:11;2.70;99.90
37972;DHT22;23794;48.234;8.344;2022-11-20T04:19:37;2.70;99.90
37972;DHT22;23794;48.234;8.344;2022-11-20T04:22:04;2.60;99.90
37972;DHT22;23794;48.234;8.344;2022-11-20T04:24:31;2.70;99.90
37972;DHT22;23794;48.234;8.344;2022-11-20T04:26:57;2.70;99.90
37972;DHT22;23794;48.234;8.344;2022-11-20T04:29:24;2.80;99.90
37972;DHT22;23794;48.234;8.344;2022-11-20T04:31:51;2.80;99.90
37972;DHT22;23794;48.234;8.344;2022-11-20T04:34:18;2.80;99.90
37972;DHT22;23794;48.234;8.344;2022-11-20T04:36:44;2.90;99.90
37972;DHT22;23794;48.234;8.344;2022-11-20T04:39:13;2.90;99.90
37972;DHT22;23794;48.234;8.344;2022-11-20T04:41:41;2.90;99.90
37972;DHT22;23794;48.234;8.344;2022-11-20T04:44:08;3.00;99.90
37972;DHT22;23794;48.234;8.344;2022-11-20T04:46:37;3.00;99.90
37972;DHT22;23794;48.234;8.344;2022-11-20T04:49:05;3.10;99.90
37972;DHT22;23794;48.234;8.344;2022-11-20T04:51:33;3.10;99.90
37972;DHT22;23794;48.234;8.344;2022-11-20T04:53:59;3.10;99.90
37972;DHT22;23794;48.234;8.344;2022-11-20T04:56:26;3.00;99.90
37972;DHT22;23794;48.234;8.344;2022-11-20T04:58:53;3.00;99.90
37972;DHT22;23794;48.234;8.344;2022-11-20T05:01:22;3.10;99.90
37972;DHT22;23794;48.234;8.344;2022-11-20T05:03:50;3.10;99.90
37972;DHT22;23794;48.234;8.344;2022-11-20T05:06:19;3.20;99.90
37972;DHT22;23794;48.234;8.344;2022-11-20T05:08:46;3.10;99.90
37972;DHT22;23794;48.234;8.344;2022-11-20T05:11:24;3.10;99.90
37972;DHT22;23794;48.234;8.344;2022-11-20T05:13:51;3.10;99.90
37972;DHT22;23794;48.234;8.344;2022-11-20T05:16:21;3.20;99.90
37972;DHT22;23794;48.234;8.344;2022-11-20T05:18:49;3.30;99.90
37972;DHT22;23794;48.234;8.344;2022-11-20T05:21:16;3.30;99.90
37972;DHT22;23794;48.234;8.344;2022-11-20T05:23:44;3.40;99.90
37972;DHT22;23794;48.234;8.344;2022-11-20T05:26:19;3.60;99.90
37972;DHT22;23794;48.234;8.344;2022-11-20T05:28:48;3.60;99.90
37972;DHT22;23794;48.234;8.344;2022-11-20T05:31:20;3.70;99.90
37972;DHT22;23794;48.234;8.344;2022-11-20T05:33:54;3.80;99.90
37972;DHT22;23794;48.234;8.344;2022-11-20T05:36:21;3.80;99.90
37972;DHT22;23794;48.234;8.344;2022-11-20T05:38:48;3.90;99.90
37972;DHT22;23794;48.234;8.344;2022-11-20T05:41:18;3.90;99.90
37972;DHT22;23794;48.234;8.344;2022-11-20T05:43:47;4.10;99.90
37972;DHT22;23794;48.234;8.344;2022-11-20T05:46:16;4.10;99.90
37972;DHT22;23794;48.234;8.344;2022-11-20T05:48:44;4.20;99.90
37972;DHT22;23794;48.234;8.344;2022-11-20T05:51:16;4.10;99.90
37972;DHT22;23794;48.234;8.344;2022-11-20T05:53:43;4.20;99.90
37972;DHT22;23794;48.234;8.344;2022-11-20T05:56:19;4.20;99.90
37972;DHT22;23794;48.234;8.344;2022-11-20T05:58:47;4.20;99.90
37972;DHT22;23794;48.234;8.344;2022-11-20T06:01:19;4.20;99.90
37972;DHT22;23794;48.234;8.344;2022-11-20T06:03:47;4.10;99.90
37972;DHT22;23794;48.234;8.344;2022-11-20T06:06:15;4.10;99.90
37972;DHT22;23794;48.234;8.344;2022-11-20T06:08:43;4.20;99.90
37972;DHT22;23794;48.234;8.344;2022-11-20T06:11:12;4.30;99.90
37972;DHT22;23794;48.234;8.344;2022-11-20T06:13:39;4.20;99.90
37972;DHT22;23794;48.234;8.344;2022-11-20T06:16:09;4.30;99.90
37972;DHT22;23794;48.234;8.344;2022-11-20T06:18:36;4.20;99.90
37972;DHT22;23794;48.234;8.344;2022-11-20T06:23:35;4.30;99.90
37972;DHT22;23794;48.234;8.344;2022-11-20T06:28:30;4.40;99.90
37972;DHT22;23794;48.234;8.344;2022-11-20T06:30:57;4.40;99.90
37972;DHT22;23794;48.234;8.344;2022-11-20T06:33:24;4.50;99.90
37972;DHT22;23794;48.234;8.344;2022-11-20T06:35:51;4.50;99.90
37972;DHT22;23794;48.234;8.344;2022-11-20T06:38:26;4.50;99.90
37972;DHT22;23794;48.234;8.344;2022-11-20T06:40:53;4.40;99.90
37972;DHT22;23794;48.234;8.344;2022-11-20T06:43:21;4.40;99.90
37972;DHT22;23794;48.234;8.344;2022-11-20T06:45:52;4.40;99.90
37972;DHT22;23794;48.234;8.344;2022-11-20T06:48:19;4.40;99.90
37972;DHT22;23794;48.234;8.344;2022-11-20T06:50:47;4.30;99.90
37972;DHT22;23794;48.234;8.344;2022-11-20T06:53:13;4.40;99.90
37972;DHT22;23794;48.234;8.344;2022-11-20T06:55:47;4.30;99.90
37972;DHT22;23794;48.234;8.344;2022-11-20T06:58:15;4.30;99.90
37972;DHT22;23794;48.234;8.344;2022-11-20T07:00:42;4.30;99.90
37972;DHT22;23794;48.234;8.344;2022-11-20T07:03:11;4.40;99.90
37972;DHT22;23794;48.234;8.344;2022-11-20T07:05:38;4.40;99.90
37972;DHT22;23794;48.234;8.344;2022-11-20T07:08:08;4.40;99.90
37972;DHT22;23794;48.234;8.344;2022-11-20T07:10:35;4.40;99.90
37972;DHT22;23794;48.234;8.344;2022-11-20T07:13:02;4.30;99.90
37972;DHT22;23794;48.234;8.344;2022-11-20T07:15:29;4.40;99.90
37972;DHT22;23794;48.234;8.344;2022-11-20T07:17:59;4.40;99.90
37972;DHT22;23794;48.234;8.344;2022-11-20T07:20:26;4.50;99.90
37972;DHT22;23794;48.234;8.344;2022-11-20T07:22:57;4.50;99.90
37972;DHT22;23794;48.234;8.344;2022-11-20T07:25:26;4.40;99.90
37972;DHT22;23794;48.234;8.344;2022-11-20T07:27:56;4.50;99.90
37972;DHT22;23794;48.234;8.344;2022-11-20T07:30:23;4.60;99.90
37972;DHT22;23794;48.234;8.344;2022-11-20T07:32:53;4.60;99.90
37972;DHT22;23794;48.234;8.344;2022-11-20T07:35:20;4.80;99.90
37972;DHT22;23794;48.234;8.344;2022-11-20T07:37:47;4.90;99.90
37972;DHT22;23794;48.234;8.344;2022-11-20T07:40:15;5.00;99.90
37972;DHT22;23794;48.234;8.344;2022-11-20T07:42:54;5.00;99.90
37972;DHT22;23794;48.234;8.344;2022-11-20T07:45:23;5.00;99.90
37972;DHT22;23794;48.234;8.344;2022-11-20T07:47:50;5.00;99.90
37972;DHT22;23794;48.234;8.344;2022-11-20T07:50:17;5.00;99.90
37972;DHT22;23794;48.234;8.344;2022-11-20T07:52:44;5.00;99.90
37972;DHT22;23794;48.234;8.344;2022-11-20T07:55:12;5.00;99.90
37972;DHT22;23794;48.234;8.344;2022-11-20T07:57:39;5.10;99.90
37972;DHT22;23794;48.234;8.344;2022-11-20T08:00:08;5.10;99.90
37972;DHT22;23794;48.234;8.344;2022-11-20T08:02:39;5.00;99.90
37972;DHT22;23794;48.234;8.344;2022-11-20T08:05:08;5.10;99.90
37972;DHT22;23794;48.234;8.344;2022-11-20T08:07:36;5.10;99.90
37972;DHT22;23794;48.234;8.344;2022-11-20T08:10:04;5.20;99.90
37972;DHT22;23794;48.234;8.344;2022-11-20T08:12:32;5.20;99.90
37972;DHT22;23794;48.234;8.344;2022-11-20T08:15:17;5.20;99.90
37972;DHT22;23794;48.234;8.344;2022-11-20T08:17:44;5.10;99.90
37972;DHT22;23794;48.234;8.344;2022-11-20T08:20:31;5.10;99.90
37972;DHT22;23794;48.234;8.344;2022-11-20T08:23:03;5.10;99.90
37972;DHT22;23794;48.234;8.344;2022-11-20T08:25:30;5.10;99.90
37972;DHT22;23794;48.234;8.344;2022-11-20T08:27:58;5.10;99.90
37972;DHT22;23794;48.234;8.344;2022-11-20T08:30:29;5.00;99.90
37972;DHT22;23794;48.234;8.344;2022-11-20T08:33:02;5.00;99.90
37972;DHT22;23794;48.234;8.344;2022-11-20T08:35:32;5.00;99.90
37972;DHT22;23794;48.234;8.344;2022-11-20T08:37:59;5.00;99.90
37972;DHT22;23794;48.234;8.344;2022-11-20T08:40:26;5.10;99.90
37972;DHT22;23794;48.234;8.344;2022-11-20T08:42:53;5.20;99.90
37972;DHT22;23794;48.234;8.344;2022-11-20T08:45:20;5.10;99.90
37972;DHT22;23794;48.234;8.344;2022-11-20T08:47:47;5.00;99.90
37972;DHT22;23794;48.234;8.344;2022-11-20T08:50:15;5.00;99.90
37972;DHT22;23794;48.234;8.344;2022-11-20T08:52:43;5.00;99.90
37972;DHT22;23794;48.234;8.344;2022-11-20T08:55:10;5.00;99.90
37972;DHT22;23794;48.234;8.344;2022-11-20T08:57:37;4.90;99.90
37972;DHT22;23794;48.234;8.344;2022-11-20T09:00:05;4.90;99.90
37972;DHT22;23794;48.234;8.344;2022-11-20T09:02:33;4.90;99.90
37972;DHT22;23794;48.234;8.344;2022-11-20T09:05:01;4.90;99.90
37972;DHT22;23794;48.234;8.344;2022-11-20T09:07:29;4.90;99.90
37972;DHT22;23794;48.234;8.344;2022-11-20T09:09:56;4.90;99.90
37972;DHT22;23794;48.234;8.344;2022-11-20T09:12:48;4.90;99.90
37972;DHT22;23794;48.234;8.344;2022-11-20T09:15:16;4.90;99.90
37972;DHT22;23794;48.234;8.344;2022-11-20T09:17:49;4.90;99.90
37972;DHT22;23794;48.234;8.344;2022-11-20T09:20:16;4.90;99.90
37972;DHT22;23794;48.234;8.344;2022-11-20T09:22:43;5.00;99.90
37972;DHT22;23794;48.234;8.344;2022-11-20T09:25:10;5.00;99.90
37972;DHT22;23794;48.234;8.344;2022-11-20T09:27:37;5.00;99.90
37972;DHT22;23794;48.234;8.344;2022-11-20T09:30:04;5.10;99.90
37972;DHT22;23794;48.234;8.344;2022-11-20T09:32:31;5.10;99.90
37972;DHT22;23794;48.234;8.344;2022-11-20T09:34:58;5.10;99.90
37972;DHT22;23794;48.234;8.344;2022-11-20T09:37:28;5.20;99.90
37972;DHT22;23794;48.234;8.344;2022-11-20T09:39:55;5.10;99.90
37972;DHT22;23794;48.234;8.344;2022-11-20T09:42:46;5.10;99.90
37972;DHT22;23794;48.234;8.344;2022-11-20T09:50:28;5.00;99.90
37972;DHT22;23794;48.234;8.344;2022-11-20T09:55:48;4.80;99.90
37972;DHT22;23794;48.234;8.344;2022-11-20T09:58:27;4.80;99.90
37972;DHT22;23794;48.234;8.344;2022-11-20T10:01:03;4.90;99.90
37972;DHT22;23794;48.234;8.344;2022-11-20T10:04:02;4.90;99.90
37972;DHT22;23794;48.234;8.344;2022-11-20T10:06:39;5.00;99.90
37972;DHT22;23794;48.234;8.344;2022-11-20T10:12:02;4.90;99.90
37972;DHT22;23794;48.234;8.344;2022-11-20T10:20:43;5.00;99.90
37972;DHT22;23794;48.234;8.344;2022-11-20T10:23:28;5.00;99.90
37972;DHT22;23794;48.234;8.344;2022-11-20T10:26:04;5.10;99.90
37972;DHT22;23794;48.234;8.344;2022-11-20T10:31:16;5.10;99.90
37972;DHT22;23794;48.234;8.344;2022-11-20T10:33:46;5.30;99.90
37972;DHT22;23794;48.234;8.344;2022-11-20T10:36:44;5.40;99.90
37972;DHT22;23794;48.234;8.344;2022-11-20T10:41:49;5.40;99.90
37972;DHT22;23794;48.234;8.344;2022-11-20T10:44:21;5.50;99.90
37972;DHT22;23794;48.234;8.344;2022-11-20T10:47:15;5.70;99.90
37972;DHT22;23794;48.234;8.344;2022-11-20T10:49:44;5.90;99.90
37972;DHT22;23794;48.234;8.344;2022-11-20T10:52:25;5.90;99.90
37972;DHT22;23794;48.234;8.344;2022-11-20T11:00:31;5.80;99.90
37972;DHT22;23794;48.234;8.344;2022-11-20T11:02:58;5.60;99.90
37972;DHT22;23794;48.234;8.344;2022-11-20T11:05:54;5.50;99.90
37972;DHT22;23794;48.234;8.344;2022-11-20T11:08:24;5.60;99.90
37972;DHT22;23794;48.234;8.344;2022-11-20T11:11:13;5.50;99.90
37972;DHT22;23794;48.234;8.344;2022-11-20T11:13:41;5.40;99.90
37972;DHT22;23794;48.234;8.344;2022-11-20T11:16:26;5.30;99.90
37972;DHT22;23794;48.234;8.344;2022-11-20T11:19:04;5.30;99.90
37972;DHT22;23794;48.234;8.344;2022-11-20T11:21:31;5.30;99.90
37972;DHT22;23794;48.234;8.344;2022-11-20T11:24:01;5.30;99.90
37972;DHT22;23794;48.234;8.344;2022-11-20T11:26:58;5.40;99.90
37972;DHT22;23794;48.234;8.344;2022-11-20T11:29:26;5.50;99.90
37972;DHT22;23794;48.234;8.344;2022-11-20T11:32:06;5.50;99.90
37972;DHT22;23794;48.234;8.344;2022-11-20T11:34:33;5.50;99.90
37972;DHT22;23794;48.234;8.344;2022-11-20T11:37:00;5.50;99.90
37972;DHT22;23794;48.234;8.344;2022-11-20T11:39:29;5.60;99.90
37972;DHT22;23794;48.234;8.344;2022-11-20T11:41:58;5.70;99.90
37972;DHT22;23794;48.234;8.344;2022-11-20T11:44:34;5.80;99.90
37972;DHT22;23794;48.234;8.344;2022-11-20T11:47:25;5.90;99.90
37972;DHT22;23794;48.234;8.344;2022-11-20T11:53:09;6.30;99.90
37972;DHT22;23794;48.234;8.344;2022-11-20T11:55:56;6.50;99.90
37972;DHT22;23794;48.234;8.344;2022-11-20T11:58:39;6.60;99.90
37972;DHT22;23794;48.234;8.344;2022-11-20T12:01:32;6.70;99.90
37972;DHT22;23794;48.234;8.344;2022-11-20T12:06:47;6.60;99.90
37972;DHT22;23794;48.234;8.344;2022-11-20T12:09:17;6.50;99.90
37972;DHT22;23794;48.234;8.344;2022-11-20T12:14:37;6.50;99.90
37972;DHT22;23794;48.234;8.344;2022-11-20T12:17:05;6.60;99.90
37972;DHT22;23794;48.234;8.344;2022-11-20T12:19:34;6.60;99.90
37972;DHT22;23794;48.234;8.344;2022-11-20T12:28:05;6.70;99.90
37972;DHT22;23794;48.234;8.344;2022-11-20T12:30:52;6.70;99.90
37972;DHT22;23794;48.234;8.344;2022-11-20T12:41:20;6.80;99.90
37972;DHT22;23794;48.234;8.344;2022-11-20T12:44:36;7.00;99.90
37972;DHT22;23794;48.234;8.344;2022-11-20T12:47:33;7.20;99.90
37972;DHT22;23794;48.234;8.344;2022-11-20T12:52:59;7.10;99.90
37972;DHT22;23794;48.234;8.344;2022-11-20T12:58:44;6.90;99.90
37972;DHT22;23794;48.234;8.344;2022-11-20T13:01:33;6.70;99.90
37972;DHT22;23794;48.234;8.344;2022-11-20T13:06:51;6.80;99.90
37972;DHT22;23794;48.234;8.344;2022-11-20T13:09:20;7.10;99.90
37972;DHT22;23794;48.234;8.344;2022-11-20T13:14:41;7.80;99.90
37972;DHT22;23794;48.234;8.344;2022-11-20T13:17:21;8.20;99.90
37972;DHT22;23794;48.234;8.344;2022-11-20T13:19:55;8.30;99.90
37972;DHT22;23794;48.234;8.344;2022-11-20T13:25:45;8.30;99.90
37972;DHT22;23794;48.234;8.344;2022-11-20T13:30:52;8.40;99.90
37972;DHT22;23794;48.234;8.344;2022-11-20T13:33:32;8.20;99.90
37972;DHT22;23794;48.234;8.344;2022-11-20T13:36:05;7.80;99.90
37972;DHT22;23794;48.234;8.344;2022-11-20T13:38:47;7.90;99.90
37972;DHT22;23794;48.234;8.344;2022-11-20T13:41:33;7.90;99.90
37972;DHT22;23794;48.234;8.344;2022-11-20T13:46:54;7.60;99.90
37972;DHT22;23794;48.234;8.344;2022-11-20T13:49:37;7.50;99.90
37972;DHT22;23794;48.234;8.344;2022-11-20T13:57:53;7.30;99.90
37972;DHT22;23794;48.234;8.344;2022-11-20T14:00:25;7.20;99.90
37972;DHT22;23794;48.234;8.344;2022-11-20T14:05:52;6.90;99.90
37972;DHT22;23794;48.234;8.344;2022-11-20T14:08:42;6.80;99.90
37972;DHT22;23794;48.234;8.344;2022-11-20T14:11:23;6.70;99.90
37972;DHT22;23794;48.234;8.344;2022-11-20T14:16:47;6.60;99.90
37972;DHT22;23794;48.234;8.344;2022-11-20T14:19:23;6.50;99.90
37972;DHT22;23794;48.234;8.344;2022-11-20T14:21:54;6.50;99.90
37972;DHT22;23794;48.234;8.344;2022-11-20T14:24:22;6.40;99.90
37972;DHT22;23794;48.234;8.344;2022-11-20T14:26:51;6.30;99.90
37972;DHT22;23794;48.234;8.344;2022-11-20T14:29:26;6.10;99.90
37972;DHT22;23794;48.234;8.344;2022-11-20T14:31:55;6.00;99.90
37972;DHT22;23794;48.234;8.344;2022-11-20T14:34:28;5.80;99.90
37972;DHT22;23794;48.234;8.344;2022-11-20T14:37:01;5.80;99.90
37972;DHT22;23794;48.234;8.344;2022-11-20T14:39:39;5.80;99.90
37972;DHT22;23794;48.234;8.344;2022-11-20T14:42:23;5.80;99.90
37972;DHT22;23794;48.234;8.344;2022-11-20T14:44:52;5.70;99.90
37972;DHT22;23794;48.234;8.344;2022-11-20T14:47:29;5.60;99.90
37972;DHT22;23794;48.234;8.344;2022-11-20T14:49:57;5.40;99.90
37972;DHT22;23794;48.234;8.344;2022-11-20T14:52:31;5.40;99.90
37972;DHT22;23794;48.234;8.344;2022-11-20T14:54:58;5.40;99.90
37972;DHT22;23794;48.234;8.344;2022-11-20T14:57:33;5.40;99.90
37972;DHT22;23794;48.234;8.344;2022-11-20T15:02:41;5.10;99.90
37972;DHT22;23794;48.234;8.344;2022-11-20T15:05:09;5.10;99.90
37972;DHT22;23794;48.234;8.344;2022-11-20T15:07:41;5.00;99.90
37972;DHT22;23794;48.234;8.344;2022-11-20T15:10:13;4.90;99.90
37972;DHT22;23794;48.234;8.344;2022-11-20T15:12:50;4.80;99.90
37972;DHT22;23794;48.234;8.344;2022-11-20T15:15:20;4.70;99.90
37972;DHT22;23794;48.234;8.344;2022-11-20T15:17:47;4.60;99.90
37972;DHT22;23794;48.234;8.344;2022-11-20T15:20:16;4.60;99.90
37972;DHT22;23794;48.234;8.344;2022-11-20T15:22:43;4.60;99.90
37972;DHT22;23794;48.234;8.344;2022-11-20T15:25:19;4.50;99.90
37972;DHT22;23794;48.234;8.344;2022-11-20T15:27:50;4.50;99.90
37972;DHT22;23794;48.234;8.344;2022-11-20T15:30:20;4.50;99.90
37972;DHT22;23794;48.234;8.344;2022-11-20T15:32:48;4.40;99.90
37972;DHT22;23794;48.234;8.344;2022-11-20T15:35:15;4.40;99.90
37972;DHT22;23794;48.234;8.344;2022-11-20T15:37:42;4.40;99.90
37972;DHT22;23794;48.234;8.344;2022-11-20T15:40:09;4.30;99.90
37972;DHT22;23794;48.234;8.344;2022-11-20T15:42:36;4.30;99.90
37972;DHT22;23794;48.234;8.344;2022-11-20T15:45:04;4.20;99.90
37972;DHT22;23794;48.234;8.344;2022-11-20T15:47:35;4.30;99.90
37972;DHT22;23794;48.234;8.344;2022-11-20T15:50:02;4.20;99.90
37972;DHT22;23794;48.234;8.344;2022-11-20T15:52:29;4.10;99.90
37972;DHT22;23794;48.234;8.344;2022-11-20T15:55:10;4.00;99.90
37972;DHT22;23794;48.234;8.344;2022-11-20T15:57:36;4.00;99.90
37972;DHT22;23794;48.234;8.344;2022-11-20T16:00:04;4.10;99.90
37972;DHT22;23794;48.234;8.344;2022-11-20T16:02:36;4.10;99.90
37972;DHT22;23794;48.234;8.344;2022-11-20T16:05:03;4.00;99.90
37972;DHT22;23794;48.234;8.344;2022-11-20T16:07:31;4.10;99.90
37972;DHT22;23794;48.234;8.344;2022-11-20T16:09:58;4.00;99.90
37972;DHT22;23794;48.234;8.344;2022-11-20T16:12:25;3.90;99.90
37972;DHT22;23794;48.234;8.344;2022-11-20T16:15:10;3.90;99.90
37972;DHT22;23794;48.234;8.344;2022-11-20T16:17:55;3.80;99.90
37972;DHT22;23794;48.234;8.344;2022-11-20T16:20:22;3.80;99.90
37972;DHT22;23794;48.234;8.344;2022-11-20T16:22:49;3.80;99.90
37972;DHT22;23794;48.234;8.344;2022-11-20T16:25:16;3.90;99.90
37972;DHT22;23794;48.234;8.344;2022-11-20T16:27:42;4.10;99.90
37972;DHT22;23794;48.234;8.344;2022-11-20T16:30:10;4.10;99.90
37972;DHT22;23794;48.234;8.344;2022-11-20T16:32:36;4.00;99.90
37972;DHT22;23794;48.234;8.344;2022-11-20T16:35:05;4.00;99.90
37972;DHT22;23794;48.234;8.344;2022-11-20T16:37:33;4.00;99.90
37972;DHT22;23794;48.234;8.344;2022-11-20T16:40:00;4.10;99.90
37972;DHT22;23794;48.234;8.344;2022-11-20T16:42:27;4.20;99.90
37972;DHT22;23794;48.234;8.344;2022-11-20T16:44:54;4.30;99.90
37972;DHT22;23794;48.234;8.344;2022-11-20T16:47:21;4.20;99.90
37972;DHT22;23794;48.234;8.344;2022-11-20T16:49:47;4.20;99.90
37972;DHT22;23794;48.234;8.344;2022-11-20T16:52:14;4.30;99.90
37972;DHT22;23794;48.234;8.344;2022-11-20T16:54:41;4.20;99.90
37972;DHT22;23794;48.234;8.344;2022-11-20T16:57:08;4.20;99.90
37972;DHT22;23794;48.234;8.344;2022-11-20T16:59:34;4.30;99.90
37972;DHT22;23794;48.234;8.344;2022-11-20T17:02:01;4.20;99.90
37972;DHT22;23794;48.234;8.344;2022-11-20T17:04:28;4.20;99.90
37972;DHT22;23794;48.234;8.344;2022-11-20T17:06:55;4.00;99.90
37972;DHT22;23794;48.234;8.344;2022-11-20T17:09:21;3.90;99.90
37972;DHT22;23794;48.234;8.344;2022-11-20T17:11:48;3.80;99.90
37972;DHT22;23794;48.234;8.344;2022-11-20T17:14:15;3.80;99.90
37972;DHT22;23794;48.234;8.344;2022-11-20T17:16:42;3.80;99.90
37972;DHT22;23794;48.234;8.344;2022-11-20T17:19:08;3.80;99.90
37972;DHT22;23794;48.234;8.344;2022-11-20T17:21:36;3.80;99.90
37972;DHT22;23794;48.234;8.344;2022-11-20T17:24:05;3.90;99.90
37972;DHT22;23794;48.234;8.344;2022-11-20T17:26:33;3.90;99.90
37972;DHT22;23794;48.234;8.344;2022-11-20T17:29:06;3.90;99.90
37972;DHT22;23794;48.234;8.344;2022-11-20T17:31:34;3.80;99.90
37972;DHT22;23794;48.234;8.344;2022-11-20T17:34:01;3.90;99.90
37972;DHT22;23794;48.234;8.344;2022-11-20T17:36:29;3.90;99.90
37972;DHT22;23794;48.234;8.344;2022-11-20T17:38:56;3.90;99.90
37972;DHT22;23794;48.234;8.344;2022-11-20T17:41:26;4.10;99.90